Time;durP1;ratioP1;P1;durP2;ratioP2;P2;SDS_P1;SDS_P2;PMS_P1;PMS_P2;Temp;Humidity;BMP_temperature;BMP_pressure;BME280_temperature;BME280_humidity;BME280_pressure;Samples;Min_cycle;Max_cycle;Signal;HPM_P1;HPM_P2
2021/01/25 00:01:16;;;;;;;0.78;0.53;;;;;;;13.20;61.06;99228.72;1797146;78;21193;-58
2021/01/25 00:03:47;;;;;;;0.70;0.55;;;;;;;12.96;60.65;99235.83;1797096;79;21468;-59
2021/01/25 00:06:16;;;;;;;1.82;0.85;;;;;;;12.58;61.11;99232.58;1797055;79;21556;-57
2021/01/25 00:08:44;;;;;;;1.32;0.95;;;;;;;12.30;62.21;99228.50;1779640;79;21553;-56
2021/01/25 00:11:12;;;;;;;1.30;1.20;;;;;;;12.06;62.69;99227.88;1796778;78;21297;-57
2021/01/25 00:13:41;;;;;;;1.17;1.07;;;;;;;11.82;63.45;99227.52;1797107;79;21340;-58
2021/01/25 00:16:10;;;;;;;1.15;0.90;;;;;;;11.62;63.91;99225.13;1796856;79;21150;-58
2021/01/25 00:18:38;;;;;;;1.62;1.07;;;;;;;11.54;65.09;99221.16;1796997;78;21080;-59
2021/01/25 00:21:05;;;;;;;2.37;1.42;;;;;;;11.55;64.86;99211.06;1797077;78;21490;-58
2021/01/25 00:23:33;;;;;;;1.92;1.35;;;;;;;11.46;65.10;99215.60;1796987;78;20964;-55
2021/01/25 00:26:01;;;;;;;1.15;1.15;;;;;;;11.36;65.16;99227.47;1797141;79;21359;-57
2021/01/25 00:28:28;;;;;;;2.77;1.60;;;;;;;11.24;65.40;99231.19;1796970;79;20988;-55
2021/01/25 00:30:56;;;;;;;1.95;1.75;;;;;;;11.07;65.73;99239.89;1796880;78;21456;-58
2021/01/25 00:33:25;;;;;;;3.72;1.82;;;;;;;10.89;66.20;99239.58;1797058;79;21083;-56
2021/01/25 00:35:53;;;;;;;1.65;1.47;;;;;;;10.79;66.79;99241.09;1797112;79;21103;-57
2021/01/25 00:38:21;;;;;;;1.90;0.80;;;;;;;10.74;67.01;99241.71;1797041;79;22306;-56
2021/01/25 00:40:49;;;;;;;1.37;0.88;;;;;;;10.69;68.67;99241.78;1797086;79;21900;-57
2021/01/25 00:43:17;;;;;;;2.58;1.82;;;;;;;11.01;67.62;99241.08;1796946;78;20941;-56
2021/01/25 00:45:44;;;;;;;2.65;1.75;;;;;;;11.01;67.04;99235.08;1797000;78;21574;-56
2021/01/25 00:48:12;;;;;;;1.90;1.60;;;;;;;10.97;66.97;99226.44;1796889;78;21063;-57
2021/01/25 00:50:40;;;;;;;2.02;1.75;;;;;;;11.01;67.22;99222.03;1797048;78;21678;-56
2021/01/25 00:53:08;;;;;;;3.25;1.87;;;;;;;11.02;67.24;99212.20;1797060;79;21499;-56
2021/01/25 00:55:35;;;;;;;3.02;1.62;;;;;;;11.14;67.21;99207.09;1797126;79;21477;-56
2021/01/25 00:58:05;;;;;;;2.33;1.50;;;;;;;11.17;66.56;99211.16;1796978;78;20989;-55
2021/01/25 01:00:33;;;;;;;1.75;1.62;;;;;;;11.14;66.72;99204.93;1797054;78;20960;-55
2021/01/25 01:03:02;;;;;;;2.87;2.15;;;;;;;11.08;66.54;99203.40;1797087;78;21388;-56
2021/01/25 01:05:31;;;;;;;2.83;2.52;;;;;;;11.09;66.96;99199.56;1796888;79;21067;-57
2021/01/25 01:07:58;;;;;;;2.02;1.65;;;;;;;11.14;66.89;99195.40;1796927;78;21051;-56
2021/01/25 01:10:27;;;;;;;4.22;2.67;;;;;;;11.20;66.87;99195.57;1796920;79;21051;-57
2021/01/25 01:12:54;;;;;;;3.40;2.83;;;;;;;11.27;66.57;99208.83;1796774;78;21213;-56
2021/01/25 01:15:22;;;;;;;2.75;2.45;;;;;;;11.23;66.00;99201.80;1799711;78;21189;-57
2021/01/25 01:17:50;;;;;;;3.22;2.17;;;;;;;11.04;66.18;99208.61;1799757;78;21369;-57
2021/01/25 01:20:19;;;;;;;3.00;2.08;;;;;;;10.89;66.87;99202.84;1799776;79;21040;-56
2021/01/25 01:22:47;;;;;;;3.10;2.70;;;;;;;10.95;67.10;99200.05;1799779;78;20913;-56
2021/01/25 01:25:15;;;;;;;5.08;2.60;;;;;;;10.98;66.74;99204.91;1799894;78;21542;-56
2021/01/25 01:27:44;;;;;;;3.10;2.20;;;;;;;10.89;66.78;99204.20;1799743;79;21119;-57
2021/01/25 01:30:15;;;;;;;3.50;2.60;;;;;;;10.79;66.93;99205.72;1799742;78;20960;-56
2021/01/25 01:32:44;;;;;;;4.53;2.67;;;;;;;10.66;67.39;99203.75;1799759;79;21086;-55
2021/01/25 01:35:12;;;;;;;2.55;2.35;;;;;;;10.61;67.51;99211.42;1799791;78;20965;-56
2021/01/25 01:37:40;;;;;;;3.35;3.05;;;;;;;10.57;67.85;99216.37;1799789;79;21035;-56
2021/01/25 01:40:10;;;;;;;2.83;2.10;;;;;;;10.55;67.97;99216.68;1799699;79;21240;-59
2021/01/25 01:42:38;;;;;;;3.33;2.75;;;;;;;10.54;68.32;99211.51;1799820;78;21138;-57
2021/01/25 01:45:08;;;;;;;2.62;2.42;;;;;;;10.59;68.06;99219.08;1799858;79;21055;-56
2021/01/25 01:47:40;;;;;;;2.85;2.52;;;;;;;10.68;68.42;99212.41;1799878;78;21402;-57
2021/01/25 01:50:11;;;;;;;3.20;2.65;;;;;;;10.78;67.76;99219.62;1799785;79;21052;-58
2021/01/25 01:52:39;;;;;;;3.42;2.50;;;;;;;10.71;67.58;99217.27;1784443;79;21374;-57
2021/01/25 01:55:09;;;;;;;4.30;2.75;;;;;;;10.56;67.96;99205.25;1799782;78;20928;-56
2021/01/25 01:57:36;;;;;;;4.47;3.10;;;;;;;10.60;67.92;99217.97;1799872;79;20925;-57
2021/01/25 02:00:06;;;;;;;3.80;3.10;;;;;;;10.59;67.88;99211.44;1799730;78;21103;-56
2021/01/25 02:02:44;;;;;;;3.35;3.02;;;;;;;10.55;67.96;99213.95;1799832;78;21087;-57
2021/01/25 02:05:13;;;;;;;2.52;2.22;;;;;;;10.47;67.92;99213.23;1799749;79;22276;-57
2021/01/25 02:07:44;;;;;;;3.47;2.87;;;;;;;10.44;68.68;99215.72;1799734;78;21083;-57
2021/01/25 02:10:13;;;;;;;3.08;2.62;;;;;;;10.48;68.39;99214.05;1799851;79;21087;-57
2021/01/25 02:12:40;;;;;;;3.30;3.00;;;;;;;10.45;68.39;99222.25;1799626;78;22042;-56
2021/01/25 02:15:10;;;;;;;2.75;2.33;;;;;;;10.44;68.41;99222.00;1784158;79;21043;-56
2021/01/25 02:17:38;;;;;;;3.42;2.70;;;;;;;10.55;69.09;99215.87;1799741;79;21181;-56
2021/01/25 02:20:33;;;;;;;3.20;2.90;;;;;;;10.78;68.76;99220.42;1799701;79;21495;-57
2021/01/25 02:23:53;;;;;;;4.12;2.40;;;;;;;11.02;68.04;99223.64;1791450;78;21036;-59
2021/01/25 02:27:00;;;;;;;3.33;2.80;;;;;;;11.22;67.67;99227.41;1799714;79;21854;-57
2021/01/25 02:29:27;;;;;;;3.30;2.25;;;;;;;11.52;66.38;99226.66;1740806;82;21549;-60
2021/01/25 02:31:55;;;;;;;4.03;2.42;;;;;;;11.79;65.99;99219.09;1789211;79;21469;-57
2021/01/25 02:34:24;;;;;;;4.15;3.33;;;;;;;11.93;64.74;99224.85;1799436;79;20976;-56
2021/01/25 02:36:52;;;;;;;3.40;2.92;;;;;;;11.77;64.32;99231.66;1799640;79;21285;-55
2021/01/25 02:39:19;;;;;;;3.72;2.58;;;;;;;11.58;64.65;99232.27;1783931;79;21075;-55
2021/01/25 02:41:47;;;;;;;2.17;1.80;;;;;;;11.44;65.37;99233.02;1799679;79;21047;-56
2021/01/25 02:44:15;;;;;;;3.08;2.55;;;;;;;11.57;65.75;99242.91;1799710;79;21349;-56
2021/01/25 02:46:44;;;;;;;2.72;2.45;;;;;;;11.93;64.80;99241.20;1783767;79;20975;-56
2021/01/25 02:49:12;;;;;;;4.00;3.52;;;;;;;11.98;63.94;99241.66;1799585;78;21085;-57
2021/01/25 02:51:40;;;;;;;4.62;3.65;;;;;;;11.89;63.82;99239.37;1799444;78;20932;-55
2021/01/25 02:54:07;;;;;;;3.58;3.12;;;;;;;11.67;64.05;99236.73;1799619;79;21004;-59
2021/01/25 02:56:37;;;;;;;4.30;3.52;;;;;;;11.59;64.87;99240.69;1799451;78;21534;-56
2021/01/25 02:59:05;;;;;;;2.85;2.60;;;;;;;11.69;64.58;99235.88;1799552;79;21113;-56
2021/01/25 03:01:33;;;;;;;4.35;3.65;;;;;;;11.70;64.37;99232.03;1799608;78;21558;-56
2021/01/25 03:04:02;;;;;;;3.90;3.10;;;;;;;11.66;63.94;99235.69;1799634;79;20912;-56
2021/01/25 03:06:29;;;;;;;3.80;3.17;;;;;;;11.50;64.29;99234.30;1799597;78;21574;-57
2021/01/25 03:08:56;;;;;;;4.22;3.27;;;;;;;11.40;64.62;99235.28;1799562;79;21191;-56
2021/01/25 03:11:24;;;;;;;3.08;2.77;;;;;;;11.47;64.97;99229.47;1799599;79;20981;-57
2021/01/25 03:13:52;;;;;;;3.33;3.02;;;;;;;11.58;64.51;99230.34;1799026;79;21076;-57
2021/01/25 03:16:20;;;;;;;3.58;3.15;;;;;;;11.57;64.11;99231.46;1796814;78;20929;-57
2021/01/25 03:18:48;;;;;;;3.52;3.20;;;;;;;11.56;64.10;99231.22;1796658;79;21067;-57
2021/01/25 03:21:16;;;;;;;6.25;3.98;;;;;;;11.45;64.04;99225.66;1796851;78;21338;-57
2021/01/25 03:23:43;;;;;;;3.90;3.30;;;;;;;11.32;64.22;99217.72;1796668;79;21066;-56
2021/01/25 03:26:11;;;;;;;4.28;3.62;;;;;;;11.21;64.55;99217.63;1796770;78;21122;-57
2021/01/25 03:28:39;;;;;;;4.12;3.55;;;;;;;11.06;64.60;99214.59;1796689;79;21090;-58
2021/01/25 03:31:07;;;;;;;4.33;3.62;;;;;;;10.90;64.58;99205.84;1796896;79;21121;-57
2021/01/25 03:33:35;;;;;;;3.58;2.75;;;;;;;10.67;65.06;99210.80;1796965;79;23505;-57
2021/01/25 03:36:03;;;;;;;4.00;3.60;;;;;;;10.40;65.54;99204.64;1796716;79;20981;-57
2021/01/25 03:38:31;;;;;;;3.35;3.05;;;;;;;10.19;66.09;99206.77;1796843;78;21138;-57
2021/01/25 03:40:58;;;;;;;3.50;3.20;;;;;;;10.04;66.55;99200.16;1797006;79;21483;-57
2021/01/25 03:43:26;;;;;;;4.35;3.15;;;;;;;9.85;67.07;99202.80;1796883;79;21456;-57
2021/01/25 03:45:54;;;;;;;3.15;2.85;;;;;;;9.78;67.54;99211.30;1796853;78;21250;-56
2021/01/25 03:48:22;;;;;;;3.75;3.37;;;;;;;9.75;68.04;99215.94;1797063;78;21578;-57
2021/01/25 03:50:50;;;;;;;2.65;2.45;;;;;;;9.82;67.91;99219.11;1796872;79;20913;-56
2021/01/25 03:53:18;;;;;;;2.40;2.20;;;;;;;9.86;67.96;99213.92;1797001;79;21139;-57
2021/01/25 03:55:46;;;;;;;2.98;2.37;;;;;;;9.93;67.58;99209.49;1796889;78;21127;-57
2021/01/25 03:58:13;;;;;;;2.85;2.37;;;;;;;9.91;67.27;99204.91;1796908;78;22488;-57
2021/01/25 04:00:42;;;;;;;3.02;2.72;;;;;;;9.80;67.32;99202.86;1796945;79;20940;-56
2021/01/25 04:03:10;;;;;;;3.05;2.80;;;;;;;9.71;67.51;99206.73;1796648;78;21099;-55
2021/01/25 04:05:37;;;;;;;3.05;2.60;;;;;;;9.61;67.63;99205.48;1797031;78;21483;-56
2021/01/25 04:08:05;;;;;;;3.00;2.65;;;;;;;9.49;67.80;99198.27;1794120;78;20939;-55
2021/01/25 04:10:33;;;;;;;3.12;2.80;;;;;;;9.29;68.09;99209.56;1781320;79;21287;-56
2021/01/25 04:13:01;;;;;;;3.42;2.95;;;;;;;9.13;68.53;99206.72;1780071;79;20975;-57
2021/01/25 04:15:29;;;;;;;3.47;2.52;;;;;;;9.03;68.87;99205.44;1728471;80;21474;-56
2021/01/25 04:17:57;;;;;;;3.75;3.05;;;;;;;8.94;69.21;99205.77;1728328;83;20959;-55
2021/01/25 04:20:25;;;;;;;3.12;2.67;;;;;;;8.86;69.42;99209.88;1720556;82;21015;-55
2021/01/25 04:22:53;;;;;;;3.10;2.80;;;;;;;8.79;69.67;99209.39;1720357;82;21380;-57
2021/01/25 04:25:20;;;;;;;3.47;3.17;;;;;;;8.72;69.84;99208.35;1720206;83;21530;-56
2021/01/25 04:27:49;;;;;;;4.45;3.55;;;;;;;8.65;70.02;99202.41;1720508;83;20991;-55
2021/01/25 04:30:18;;;;;;;3.55;3.25;;;;;;;8.62;70.20;99204.86;1720331;82;20964;-57
2021/01/25 04:32:46;;;;;;;5.15;4.03;;;;;;;8.61;70.31;99202.70;1720415;83;20935;-55
2021/01/25 04:35:15;;;;;;;5.42;4.08;;;;;;;8.59;70.35;99199.47;1720481;82;21372;-55
2021/01/25 04:37:43;;;;;;;4.12;3.72;;;;;;;8.55;70.40;99202.47;1720517;82;21545;-56
2021/01/25 04:40:12;;;;;;;4.65;3.80;;;;;;;8.50;70.54;99200.59;1720438;82;21514;-55
2021/01/25 04:42:40;;;;;;;4.72;4.08;;;;;;;8.46;70.66;99197.36;1720540;82;21070;-55
2021/01/25 04:45:10;;;;;;;4.58;4.15;;;;;;;8.41;70.77;99189.25;1720520;82;21066;-56
2021/01/25 04:47:46;;;;;;;4.08;3.62;;;;;;;8.40;70.78;99189.80;1720758;83;22274;-56
2021/01/25 04:50:17;;;;;;;4.25;3.80;;;;;;;8.37;70.78;99187.67;1699805;83;21220;-58
2021/01/25 04:52:47;;;;;;;4.85;3.62;;;;;;;8.35;70.83;99193.86;1720257;83;21597;-59
2021/01/25 04:55:15;;;;;;;5.95;4.15;;;;;;;8.29;70.97;99199.85;1747248;82;21146;-60
2021/01/25 04:57:44;;;;;;;3.90;3.50;;;;;;;8.25;71.15;99200.13;1750439;80;21016;-58
2021/01/25 05:00:14;;;;;;;4.55;3.65;;;;;;;8.20;71.43;99202.05;1749977;82;21482;-59
2021/01/25 05:02:42;;;;;;;4.50;3.60;;;;;;;8.11;71.68;99203.20;1750496;80;21023;-55
2021/01/25 05:05:12;;;;;;;3.40;2.50;;;;;;;8.09;71.81;99196.41;1750182;81;20945;-58
2021/01/25 05:07:39;;;;;;;3.80;3.08;;;;;;;8.04;71.91;99191.28;1750289;82;21086;-58
2021/01/25 05:10:09;;;;;;;4.17;3.77;;;;;;;7.98;71.92;99195.64;1750416;82;21102;-57
2021/01/25 05:12:46;;;;;;;3.67;3.37;;;;;;;7.95;72.02;99190.77;1750297;82;21376;-58
2021/01/25 05:15:33;;;;;;;7.20;4.72;;;;;;;7.92;72.05;99185.92;1756726;80;21152;-58
2021/01/25 05:18:04;;;;;;;5.40;4.25;;;;;;;7.88;71.95;99186.20;1767268;81;21063;-58
2021/01/25 05:20:33;;;;;;;3.72;3.40;;;;;;;7.81;71.96;99186.49;1767266;80;21020;-58
2021/01/25 05:23:04;;;;;;;4.25;3.15;;;;;;;7.79;72.05;99197.58;1767369;80;21135;-58
2021/01/25 05:25:33;;;;;;;2.87;2.62;;;;;;;7.79;72.07;99195.41;1766599;80;21456;-58
2021/01/25 05:28:02;;;;;;;2.52;2.02;;;;;;;7.79;72.05;99195.41;1767247;80;21071;-58
2021/01/25 05:30:34;;;;;;;3.15;2.25;;;;;;;7.80;72.03;99208.67;1767174;79;21578;-60
2021/01/25 05:33:03;;;;;;;3.35;2.25;;;;;;;7.81;72.05;99213.58;1767360;79;21052;-58
2021/01/25 05:35:32;;;;;;;3.42;2.70;;;;;;;7.78;71.99;99208.15;1767316;80;21135;-61
2021/01/25 05:38:08;;;;;;;3.47;2.60;;;;;;;7.79;71.88;99209.77;1766727;80;21666;-52
2021/01/25 05:40:38;;;;;;;4.10;3.05;;;;;;;7.76;71.71;99202.75;1766663;80;21122;-55
2021/01/25 05:43:14;;;;;;;4.12;2.87;;;;;;;7.73;71.86;99197.33;1766874;80;21547;-58
2021/01/25 05:45:42;;;;;;;4.85;3.77;;;;;;;7.70;71.97;99195.16;1766806;80;21202;-57
2021/01/25 05:48:14;;;;;;;5.78;3.10;;;;;;;7.72;72.33;99201.13;1765615;80;21198;-57
2021/01/25 05:50:43;;;;;;;4.87;3.22;;;;;;;7.80;72.24;99205.97;1765620;80;21129;-58
2021/01/25 05:53:14;;;;;;;2.60;2.02;;;;;;;7.88;72.21;99211.92;1766329;80;21658;-58
2021/01/25 05:55:43;;;;;;;3.08;2.62;;;;;;;7.98;71.81;99215.41;1766560;80;21004;-57
2021/01/25 05:58:11;;;;;;;4.37;2.95;;;;;;;8.02;71.55;99218.39;1765539;79;21191;-56
2021/01/25 06:00:39;;;;;;;5.55;3.47;;;;;;;8.04;71.36;99213.49;1765738;80;21194;-56
2021/01/25 06:03:07;;;;;;;4.60;3.08;;;;;;;8.06;71.37;99212.15;1767006;80;21364;-57
2021/01/25 06:05:40;;;;;;;3.33;2.85;;;;;;;8.05;71.17;99209.69;1766880;80;21650;-56
2021/01/25 06:08:30;;;;;;;5.53;3.00;;;;;;;8.09;70.90;99207.25;1764641;80;21103;-56
2021/01/25 06:11:23;;;;;;;3.92;2.37;;;;;;;8.08;70.83;99192.90;1766973;81;21166;-58
2021/01/25 06:14:24;;;;;;;3.75;2.92;;;;;;;8.07;70.54;99203.47;1766314;80;21134;-58
2021/01/25 06:16:52;;;;;;;3.62;2.87;;;;;;;8.00;70.54;99205.09;1758821;80;22273;-57
2021/01/25 06:19:23;;;;;;;3.92;2.37;;;;;;;7.97;70.35;99200.25;1758617;81;21512;-58
2021/01/25 06:21:51;;;;;;;3.40;3.10;;;;;;;7.95;69.95;99192.93;1758642;81;21519;-58
2021/01/25 06:24:19;;;;;;;3.00;2.67;;;;;;;7.90;69.95;99186.72;1758347;81;21052;-58
2021/01/25 06:26:51;;;;;;;3.58;2.83;;;;;;;7.87;69.60;99190.80;1758116;81;20937;-56
2021/01/25 06:29:19;;;;;;;4.33;3.33;;;;;;;7.79;69.20;99195.41;1764616;80;20955;-57
2021/01/25 06:31:55;;;;;;;2.47;2.22;;;;;;;7.71;69.28;99204.12;1755668;80;21059;-58
2021/01/25 06:34:26;;;;;;;1.80;1.70;;;;;;;7.70;69.54;99205.18;1744690;81;21196;-58
2021/01/25 06:36:55;;;;;;;2.58;2.05;;;;;;;7.67;69.51;99202.49;1745279;81;21702;-58
2021/01/25 06:39:27;;;;;;;2.52;2.30;;;;;;;7.64;69.72;99204.38;1745373;82;21160;-56
2021/01/25 06:42:05;;;;;;;2.92;2.52;;;;;;;7.59;69.72;99205.74;1745824;82;22107;-58
2021/01/25 06:44:35;;;;;;;5.30;3.12;;;;;;;7.52;69.87;99205.22;1745954;82;21187;-57
2021/01/25 06:47:04;;;;;;;4.70;3.30;;;;;;;7.49;70.02;99209.27;1746438;82;21159;-57
2021/01/25 06:49:32;;;;;;;4.92;2.55;;;;;;;7.42;70.62;99199.28;1745910;81;21211;-57
2021/01/25 06:52:00;;;;;;;3.00;2.62;;;;;;;7.43;71.14;99193.32;1717536;82;21158;-57
2021/01/25 06:54:28;;;;;;;4.67;2.70;;;;;;;7.46;71.31;99200.36;1717088;82;21209;-58
2021/01/25 06:56:58;;;;;;;3.08;2.83;;;;;;;7.54;71.50;99207.10;1746376;81;21515;-59
2021/01/25 06:59:30;;;;;;;3.52;3.00;;;;;;;7.62;71.61;99201.15;1745669;81;21068;-58
2021/01/25 07:01:59;;;;;;;4.37;3.02;;;;;;;7.71;71.57;99198.70;1746366;82;21140;-57
2021/01/25 07:04:29;;;;;;;5.50;4.00;;;;;;;7.76;71.60;99206.81;1745862;82;21116;-57
2021/01/25 07:06:58;;;;;;;5.87;4.28;;;;;;;7.82;71.48;99203.55;1746205;82;21378;-58
2021/01/25 07:09:31;;;;;;;4.05;3.27;;;;;;;7.88;71.42;99195.13;1717702;82;21132;-57
2021/01/25 07:12:04;;;;;;;3.75;3.45;;;;;;;7.98;71.13;99189.68;1746211;82;22421;-58
2021/01/25 07:14:33;;;;;;;7.05;4.58;;;;;;;8.06;70.67;99192.37;1746259;82;21056;-57
2021/01/25 07:17:01;;;;;;;4.30;3.95;;;;;;;8.02;70.68;99182.62;1760207;81;20941;-58
2021/01/25 07:19:29;;;;;;;5.58;4.62;;;;;;;8.05;70.59;99182.60;1731632;82;21895;-59
2021/01/25 07:21:57;;;;;;;4.65;4.15;;;;;;;8.09;70.46;99187.74;1736678;82;21141;-60
2021/01/25 07:24:27;;;;;;;5.78;4.28;;;;;;;8.13;70.41;99182.05;1736972;82;21151;-56
2021/01/25 07:28:13;;;;;;;5.20;4.70;;;;;;;8.24;69.85;99171.97;1815375;79;26572;-66
2021/01/25 07:30:43;;;;;;;5.00;4.37;;;;;;;8.23;69.88;99177.13;1788618;80;21048;-67
2021/01/25 07:33:11;;;;;;;5.30;4.33;;;;;;;8.24;69.66;99170.06;1788345;80;21201;-59
2021/01/25 07:35:39;;;;;;;7.17;5.05;;;;;;;8.27;69.52;99162.75;1788470;80;21009;-58
2021/01/25 07:38:07;;;;;;;6.80;5.72;;;;;;;8.30;69.54;99161.36;1786097;80;21009;-56
2021/01/25 07:40:34;;;;;;;5.85;5.12;;;;;;;8.32;69.22;99157.30;1720614;83;20961;-66
2021/01/25 07:43:03;;;;;;;6.55;5.47;;;;;;;8.33;69.42;99172.47;1711415;83;21076;-56
2021/01/25 07:45:32;;;;;;;6.10;5.50;;;;;;;8.37;69.13;99164.63;1702793;84;21277;-55
2021/01/25 07:48:00;;;;;;;7.95;5.75;;;;;;;8.38;68.79;99181.70;1702064;84;21061;-59
2021/01/25 07:50:28;;;;;;;6.53;5.25;;;;;;;8.39;69.05;99184.13;1702915;84;21017;-63
2021/01/25 07:53:00;;;;;;;10.03;8.23;;;;;;;8.43;68.88;99174.89;1702273;84;21705;-58
2021/01/25 07:55:29;;;;;;;6.80;6.10;;;;;;;8.45;68.67;99188.97;1702606;83;21192;-61
2021/01/25 07:58:10;;;;;;;7.40;5.72;;;;;;;8.44;68.73;99181.93;1702531;83;21382;-60
2021/01/25 08:03:27;;;;;;;8.95;6.20;;;;;;;8.47;68.77;99172.70;1815729;79;26959;-60
2021/01/25 08:05:59;;;;;;;8.48;5.58;;;;;;;8.45;68.69;99164.58;1788692;80;20997;-59
2021/01/25 08:08:27;;;;;;;7.50;5.75;;;;;;;8.48;68.52;99160.77;1788706;80;21195;-60
2021/01/25 08:10:57;;;;;;;6.00;5.22;;;;;;;8.51;68.59;99171.58;1785650;80;21009;-58
2021/01/25 08:13:30;;;;;;;7.08;6.17;;;;;;;8.55;68.56;99160.45;1687571;83;20953;-59
2021/01/25 08:16:02;;;;;;;7.80;6.55;;;;;;;8.59;68.11;99161.52;1737975;82;21500;-58
2021/01/25 08:18:53;;;;;;;8.78;6.58;;;;;;;8.50;68.07;99161.83;1715513;83;20998;-57
2021/01/25 08:21:25;;;;;;;7.83;6.78;;;;;;;8.44;68.17;99164.31;1738070;82;21418;-60
2021/01/25 08:23:54;;;;;;;7.42;6.08;;;;;;;8.41;68.27;99158.08;1737787;82;21028;-60
2021/01/25 08:26:28;;;;;;;7.40;6.12;;;;;;;8.40;68.34;99155.12;1715781;83;21069;-60
2021/01/25 08:29:06;;;;;;;10.55;7.00;;;;;;;8.41;68.46;99162.95;1737803;82;21571;-59
2021/01/25 08:31:39;;;;;;;9.45;7.00;;;;;;;8.40;68.61;99152.41;1715600;83;21132;-60
2021/01/25 08:34:30;;;;;;;10.55;8.28;;;;;;;8.37;68.76;99152.44;1738028;82;23343;-60
2021/01/25 08:37:08;;;;;;;9.98;7.47;;;;;;;8.32;69.03;99146.47;1704840;82;21347;-58
2021/01/25 08:39:44;;;;;;;11.60;8.10;;;;;;;8.34;69.23;99152.95;1708570;84;21109;-61
2021/01/25 08:42:18;;;;;;;13.18;8.30;;;;;;;8.32;69.20;99147.02;1708346;84;21128;-57
2021/01/25 08:44:56;;;;;;;8.80;6.80;;;;;;;8.33;69.26;99133.17;1708471;84;20953;-58
2021/01/25 08:47:28;;;;;;;8.73;6.92;;;;;;;8.29;69.25;99122.63;1708485;84;21283;-68
2021/01/25 08:49:56;;;;;;;9.83;7.58;;;;;;;8.23;69.43;99125.10;1708696;84;20965;-58
2021/01/25 08:52:39;;;;;;;10.38;7.45;;;;;;;8.19;69.74;99123.22;1708518;84;21601;-57
2021/01/25 08:55:26;;;;;;;11.83;7.92;;;;;;;8.18;69.79;99114.84;1708462;84;21590;-59
2021/01/25 08:57:54;;;;;;;11.25;7.80;;;;;;;8.17;69.92;99120.00;1708335;84;21174;-61
2021/01/25 09:00:31;;;;;;;10.70;7.22;;;;;;;8.20;70.03;99119.42;1708403;84;22140;-59
2021/01/25 09:03:05;;;;;;;9.13;6.37;;;;;;;8.23;69.88;99114.81;1696809;84;21159;-59
2021/01/25 09:05:33;;;;;;;11.00;7.45;;;;;;;8.24;70.03;99112.36;1693374;84;21604;-60
2021/01/25 09:08:00;;;;;;;10.10;7.47;;;;;;;8.27;70.13;99109.91;1673658;85;21069;-67
2021/01/25 09:10:30;;;;;;;13.28;9.05;;;;;;;8.32;69.79;99102.30;1673730;85;21046;-59
2021/01/25 09:12:58;;;;;;;11.10;8.35;;;;;;;8.29;70.01;99085.23;1673477;85;22288;-59
2021/01/25 09:15:26;;;;;;;13.88;8.35;;;;;;;8.28;69.73;99088.48;1689839;85;21162;-62
2021/01/25 09:17:55;;;;;;;10.48;7.90;;;;;;;8.25;69.68;99095.81;1689707;85;21168;-60
2021/01/25 09:20:23;;;;;;;10.95;7.10;;;;;;;8.20;69.81;99097.20;1689853;85;21093;-58
2021/01/25 09:22:51;;;;;;;8.48;6.72;;;;;;;8.20;69.94;99093.13;1689640;85;21757;-61
2021/01/25 09:25:20;;;;;;;10.65;7.22;;;;;;;8.27;69.92;99096.36;1740280;82;23651;-57
2021/01/25 09:27:47;;;;;;;11.78;7.15;;;;;;;8.37;69.75;99094.17;1740349;81;21508;-57
2021/01/25 09:30:18;;;;;;;11.12;7.40;;;;;;;8.42;69.53;99089.27;1739844;82;21615;-58
2021/01/25 09:32:46;;;;;;;10.35;7.35;;;;;;;8.43;69.51;99086.81;1740208;82;21152;-58
2021/01/25 09:35:16;;;;;;;9.33;6.30;;;;;;;8.44;69.50;99089.23;1740210;81;21611;-58
2021/01/25 09:37:44;;;;;;;10.95;7.60;;;;;;;8.46;69.50;99080.80;1740460;82;21368;-55
2021/01/25 09:40:13;;;;;;;7.47;6.37;;;;;;;8.43;69.40;99075.97;1739657;82;21160;-59
2021/01/25 09:42:42;;;;;;;7.70;6.20;;;;;;;8.44;69.62;99068.91;1740316;82;21156;-58
2021/01/25 09:45:12;;;;;;;7.80;5.55;;;;;;;8.51;69.53;99063.95;1740420;82;21029;-58
2021/01/25 09:47:41;;;;;;;8.58;6.05;;;;;;;8.53;69.28;99058.27;1740095;81;21596;-58
2021/01/25 09:50:11;;;;;;;8.10;6.03;;;;;;;8.54;69.28;99054.47;1740292;82;21239;-56
2021/01/25 09:52:39;;;;;;;9.05;6.05;;;;;;;8.53;69.26;99049.59;1740336;82;21167;-63
2021/01/25 09:55:10;;;;;;;6.10;4.78;;;;;;;8.54;69.19;99044.98;1739914;82;20942;-61
2021/01/25 09:57:38;;;;;;;5.58;4.47;;;;;;;8.53;69.06;99038.75;1740074;82;21146;-58
2021/01/25 10:00:08;;;;;;;6.45;4.95;;;;;;;8.49;68.99;99043.11;1740435;82;21109;-58
2021/01/25 10:02:36;;;;;;;7.20;5.40;;;;;;;8.45;69.34;99036.63;1741527;82;22102;-57
2021/01/25 10:05:06;;;;;;;7.50;6.08;;;;;;;8.47;69.58;99036.38;1743568;82;21014;-59
2021/01/25 10:10:13;;;;;;;7.37;5.33;;;;;;;8.43;69.29;99009.56;1887939;76;28927;-60
2021/01/25 10:12:41;;;;;;;5.47;4.15;;;;;;;8.34;69.56;99009.32;1774793;80;21649;-57
2021/01/25 10:15:13;;;;;;;7.28;4.35;;;;;;;8.33;69.85;98996.87;1849537;77;21197;-57
2021/01/25 10:17:42;;;;;;;7.20;4.37;;;;;;;8.37;69.86;98990.38;1849412;77;20921;-59
2021/01/25 10:20:11;;;;;;;7.20;4.53;;;;;;;8.40;69.51;98993.86;1849175;77;20937;-59
2021/01/25 10:22:40;;;;;;;8.35;5.45;;;;;;;8.40;69.09;98991.95;1849449;77;20913;-59
2021/01/25 10:25:09;;;;;;;7.97;5.20;;;;;;;8.26;69.10;98980.11;1849470;77;20989;-58
2021/01/25 10:27:38;;;;;;;7.40;5.00;;;;;;;8.17;69.14;98986.70;1849357;77;21346;-60
2021/01/25 10:30:10;;;;;;;6.83;4.97;;;;;;;8.17;69.05;98979.92;1849271;77;21013;-57
2021/01/25 10:32:37;;;;;;;6.20;4.92;;;;;;;8.12;69.00;98966.41;1849356;77;21023;-62
2021/01/25 10:35:09;;;;;;;6.33;3.30;;;;;;;8.04;69.28;98961.59;1849320;77;21048;-58
2021/01/25 10:37:38;;;;;;;7.53;4.15;;;;;;;8.02;69.52;98965.94;1834982;77;21004;-59
2021/01/25 10:40:09;;;;;;;6.33;4.12;;;;;;;8.01;69.61;98944.02;1815943;79;21247;-59
2021/01/25 10:42:37;;;;;;;5.95;4.15;;;;;;;8.04;69.59;98949.39;1815665;78;21550;-60
2021/01/25 10:45:15;;;;;;;6.58;4.47;;;;;;;8.03;69.60;98938.30;1815841;79;21594;-59
2021/01/25 10:47:43;;;;;;;6.50;4.47;;;;;;;7.98;69.85;98922.91;1815945;79;20993;-71
2021/01/25 10:50:13;;;;;;;6.87;4.22;;;;;;;7.96;70.06;98921.03;1815949;79;21182;-55
2021/01/25 10:52:44;;;;;;;6.30;3.80;;;;;;;7.91;70.61;98914.30;1816096;78;24159;-64
2021/01/25 10:55:14;;;;;;;6.53;3.95;;;;;;;7.90;70.87;98928.10;1815953;79;20969;-61
2021/01/25 10:57:42;;;;;;;7.42;4.85;;;;;;;7.87;70.91;98915.14;1816037;78;20928;-59
2021/01/25 11:00:16;;;;;;;10.00;5.62;;;;;;;7.79;70.97;98916.53;1787015;79;20933;-60
2021/01/25 11:02:44;;;;;;;8.13;5.40;;;;;;;7.73;70.95;98907.64;1816251;79;21166;-59
2021/01/25 11:05:17;;;;;;;6.58;4.15;;;;;;;7.71;71.24;98903.61;1815999;78;21534;-61
2021/01/25 11:07:44;;;;;;;3.80;3.05;;;;;;;7.67;71.45;98896.59;1815870;79;21174;-64
2021/01/25 11:10:19;;;;;;;6.53;3.10;;;;;;;7.61;71.79;98893.66;1815629;78;21173;-61
2021/01/25 11:12:48;;;;;;;5.70;3.80;;;;;;;7.61;72.06;98888.25;1815943;79;21190;-58
2021/01/25 11:15:18;;;;;;;5.85;4.10;;;;;;;7.64;71.98;98895.79;1815977;78;20973;-63
2021/01/25 11:17:46;;;;;;;6.17;4.25;;;;;;;7.77;71.66;98888.95;1815967;79;21186;-65
2021/01/25 11:20:16;;;;;;;4.78;3.87;;;;;;;7.90;71.19;98882.88;1815490;78;21043;-68
2021/01/25 11:22:44;;;;;;;7.25;4.20;;;;;;;7.95;70.63;98884.18;1815472;78;21115;-65
2021/01/25 11:25:13;;;;;;;4.95;2.75;;;;;;;7.99;70.39;98877.66;1786294;79;20894;-60
2021/01/25 11:27:40;;;;;;;5.67;4.25;;;;;;;8.02;70.43;98863.56;1815579;79;21064;-61
2021/01/25 11:30:10;;;;;;;7.12;4.05;;;;;;;8.00;70.45;98862.48;1815223;78;21320;-59
2021/01/25 11:32:38;;;;;;;5.42;3.70;;;;;;;7.95;70.63;98865.23;1815340;79;20961;-61
2021/01/25 11:35:08;;;;;;;5.92;4.15;;;;;;;7.95;70.72;98854.94;1815446;79;21567;-60
2021/01/25 11:37:36;;;;;;;4.50;3.20;;;;;;;7.89;71.18;98851.47;1815244;78;21111;-61
2021/01/25 11:40:07;;;;;;;4.37;2.85;;;;;;;7.86;71.56;98848.55;1815323;79;21226;-61
2021/01/25 11:42:35;;;;;;;8.28;4.08;;;;;;;7.90;71.71;98840.90;1815463;79;21365;-61
2021/01/25 11:45:08;;;;;;;5.62;4.25;;;;;;;7.88;71.81;98837.67;1815130;79;21056;-65
2021/01/25 11:47:37;;;;;;;6.80;4.45;;;;;;;7.73;72.12;98845.38;1814961;78;20980;-67
2021/01/25 11:50:08;;;;;;;7.53;4.67;;;;;;;7.74;72.06;98839.41;1815339;79;21573;-58
2021/01/25 11:52:35;;;;;;;7.25;4.37;;;;;;;7.73;71.83;98821.56;1815255;79;21633;-61
2021/01/25 11:55:05;;;;;;;5.83;4.10;;;;;;;7.75;72.19;98818.81;1815290;78;22155;-62
2021/01/25 11:57:33;;;;;;;5.97;4.45;;;;;;;7.82;71.96;98821.77;1815340;78;21470;-62
2021/01/25 12:00:01;;;;;;;7.87;4.08;;;;;;;7.82;71.99;98813.64;1815272;79;21095;-61